Time;durP1;ratioP1;P1;durP2;ratioP2;P2;SDS_P1;SDS_P2;PMS_P1;PMS_P2;Temp;Humidity;BMP_temperature;BMP_pressure;BME280_temperature;BME280_humidity;BME280_pressure;Samples;Min_cycle;Max_cycle;Signal;HPM_P1;HPM_P2
2022/05/18 00:00:13;;;;;;;18.60;12.70;;;17.00;99.90;;;;;;5095521;28;20557;-70
2022/05/18 00:02:39;;;;;;;18.95;12.93;;;17.00;99.90;;;;;;5077460;28;20057;-70
2022/05/18 00:05:06;;;;;;;20.63;13.30;;;17.00;99.90;;;;;;5077208;28;20533;-71
2022/05/18 00:07:31;;;;;;;17.17;12.38;;;16.90;99.90;;;;;;5095113;28;20152;-70
2022/05/18 00:09:57;;;;;;;17.95;13.40;;;16.80;99.90;;;;;;5077336;28;20020;-70
2022/05/18 00:12:23;;;;;;;18.83;13.05;;;16.80;99.90;;;;;;5095403;28;20031;-71
2022/05/18 00:14:48;;;;;;;20.10;13.98;;;16.80;99.90;;;;;;5095370;28;20026;-71
2022/05/18 00:17:14;;;;;;;20.85;14.45;;;16.70;99.90;;;;;;5077172;28;20106;-70
2022/05/18 00:19:39;;;;;;;21.88;14.85;;;16.70;99.90;;;;;;5077074;28;20024;-70
2022/05/18 00:22:05;;;;;;;21.92;15.82;;;16.70;99.90;;;;;;5095069;28;20431;-71
2022/05/18 00:24:30;;;;;;;20.52;14.15;;;16.60;99.90;;;;;;5060249;28;20024;-70
2022/05/18 00:26:56;;;;;;;18.67;14.20;;;16.60;99.90;;;;;;5077035;28;20118;-70
2022/05/18 00:29:22;;;;;;;24.83;15.18;;;16.50;99.90;;;;;;5076816;28;20032;-71
2022/05/18 00:31:48;;;;;;;20.42;15.23;;;16.50;99.90;;;;;;5076784;28;20138;-70
2022/05/18 00:34:16;;;;;;;19.60;15.07;;;16.50;99.90;;;;;;5076682;28;20020;-70
2022/05/18 00:36:41;;;;;;;25.42;15.77;;;16.50;99.90;;;;;;5060232;28;20120;-70
2022/05/18 00:39:07;;;;;;;19.55;15.02;;;16.40;99.90;;;;;;5060225;28;20028;-71
2022/05/18 00:41:33;;;;;;;21.65;15.93;;;16.40;99.90;;;;;;5094742;28;20024;-70
2022/05/18 00:43:59;;;;;;;24.52;16.95;;;16.40;99.90;;;;;;5059814;28;20110;-70
2022/05/18 00:46:25;;;;;;;24.45;16.30;;;16.40;99.90;;;;;;5094677;28;20081;-70
2022/05/18 00:48:53;;;;;;;23.20;15.45;;;16.40;99.90;;;;;;5094550;28;20028;-70
2022/05/18 00:51:37;;;;;;;20.55;16.67;;;16.50;99.90;;;;;;5094527;28;20031;-70
2022/05/18 00:54:11;;;;;;;25.23;15.85;;;16.40;99.90;;;;;;5076960;28;20056;-70
2022/05/18 00:57:17;;;;;;;24.65;16.60;;;16.50;99.90;;;;;;5076866;28;20024;-70
2022/05/18 00:59:46;;;;;;;20.25;15.80;;;16.40;99.90;;;;;;5094157;28;20024;-70
2022/05/18 01:02:13;;;;;;;23.55;15.60;;;16.40;99.90;;;;;;5059443;28;20027;-70
2022/05/18 01:04:40;;;;;;;22.38;17.02;;;16.40;99.90;;;;;;5076263;28;20095;-70
2022/05/18 01:07:10;;;;;;;23.85;17.65;;;16.40;99.90;;;;;;5094026;28;20359;-70
2022/05/18 01:09:42;;;;;;;20.10;15.75;;;16.40;99.90;;;;;;5092801;28;20024;-70
2022/05/18 01:12:11;;;;;;;20.88;16.20;;;16.30;99.90;;;;;;5092837;28;20505;-71
2022/05/18 01:14:45;;;;;;;26.00;17.38;;;16.30;99.90;;;;;;5094066;28;20024;-70
2022/05/18 01:17:16;;;;;;;22.85;18.27;;;16.30;99.90;;;;;;5094020;28;20067;-71
2022/05/18 01:19:46;;;;;;;22.58;17.38;;;16.30;99.90;;;;;;5094018;28;20390;-70
2022/05/18 01:22:26;;;;;;;24.08;17.92;;;16.30;99.90;;;;;;5093982;28;20028;-70
2022/05/18 01:25:11;;;;;;;23.00;16.95;;;16.30;99.90;;;;;;5076981;28;20020;-70
2022/05/18 01:27:37;;;;;;;19.48;17.17;;;16.30;99.90;;;;;;5075025;28;20039;-70
2022/05/18 01:30:05;;;;;;;25.33;18.83;;;16.30;99.90;;;;;;5093819;28;20028;-70
2022/05/18 01:32:51;;;;;;;21.67;16.10;;;16.20;99.90;;;;;;5075913;28;20062;-70
2022/05/18 01:35:20;;;;;;;27.67;19.65;;;16.20;99.90;;;;;;5093833;28;20024;-70
2022/05/18 01:37:46;;;;;;;23.67;18.10;;;16.10;99.90;;;;;;5093674;28;20482;-70
2022/05/18 01:40:35;;;;;;;25.20;19.08;;;16.10;99.90;;;;;;5075709;28;20023;-70
2022/05/18 01:43:29;;;;;;;23.67;18.60;;;16.10;99.90;;;;;;5093394;28;20471;-70
2022/05/18 01:45:59;;;;;;;26.65;19.73;;;16.00;99.90;;;;;;5093590;28;20386;-70
2022/05/18 01:48:30;;;;;;;24.85;18.85;;;16.00;99.90;;;;;;5093474;28;20078;-71
2022/05/18 01:50:58;;;;;;;19.45;17.15;;;16.00;99.90;;;;;;5093476;28;20020;-71
2022/05/18 01:53:23;;;;;;;28.45;20.23;;;15.90;99.90;;;;;;5075481;28;20102;-71
2022/05/18 01:55:49;;;;;;;23.85;19.10;;;15.90;99.90;;;;;;5075488;28;20448;-71
2022/05/18 01:58:15;;;;;;;23.10;18.50;;;15.80;99.90;;;;;;5093352;28;20026;-70
2022/05/18 02:00:45;;;;;;;26.55;19.98;;;15.80;99.90;;;;;;5093384;28;20044;-71
2022/05/18 02:03:12;;;;;;;27.50;20.58;;;15.80;99.90;;;;;;5093180;28;20043;-70
2022/05/18 02:05:38;;;;;;;26.42;22.20;;;15.70;99.90;;;;;;5093381;28;20020;-70
2022/05/18 02:08:05;;;;;;;24.58;21.10;;;15.70;99.90;;;;;;5075197;28;20044;-71
2022/05/18 02:10:31;;;;;;;29.38;19.85;;;15.70;99.90;;;;;;5075403;28;20047;-70
2022/05/18 02:12:57;;;;;;;32.17;20.42;;;15.60;99.90;;;;;;5091971;28;20032;-71
2022/05/18 02:15:23;;;;;;;27.00;20.05;;;15.60;99.90;;;;;;5075166;28;20069;-71
2022/05/18 02:17:50;;;;;;;28.27;21.33;;;15.50;99.90;;;;;;5093306;28;20020;-71
2022/05/18 02:20:16;;;;;;;29.13;20.35;;;15.50;99.90;;;;;;5091952;28;20035;-71
2022/05/18 02:22:42;;;;;;;31.02;23.70;;;15.40;99.90;;;;;;5093218;28;20036;-71
2022/05/18 02:25:08;;;;;;;25.42;20.27;;;15.30;99.90;;;;;;5058392;28;20020;-71
2022/05/18 02:27:34;;;;;;;29.70;22.63;;;15.20;99.90;;;;;;5075155;28;20032;-71
2022/05/18 02:30:01;;;;;;;31.23;22.70;;;15.20;99.90;;;;;;5075299;28;20020;-71
2022/05/18 02:32:27;;;;;;;29.73;23.13;;;15.10;99.90;;;;;;5093131;28;20024;-71
2022/05/18 02:34:52;;;;;;;24.65;20.15;;;15.20;99.90;;;;;;5093064;28;20033;-71
2022/05/18 02:37:18;;;;;;;33.15;24.90;;;15.00;99.90;;;;;;5093057;28;20020;-71
2022/05/18 02:39:43;;;;;;;33.78;23.10;;;15.10;99.90;;;;;;5093001;28;20152;-71
2022/05/18 02:42:09;;;;;;;29.58;23.35;;;15.00;99.90;;;;;;5074937;28;20024;-71
2022/05/18 02:44:34;;;;;;;38.47;24.33;;;15.00;99.90;;;;;;5092976;28;20035;-71
2022/05/18 02:47:00;;;;;;;30.35;23.15;;;15.00;99.90;;;;;;5074936;28;20031;-72
2022/05/18 02:49:27;;;;;;;35.88;25.98;;;15.00;99.90;;;;;;5092870;28;20081;-71
2022/05/18 02:51:53;;;;;;;34.38;24.50;;;15.00;99.90;;;;;;5092940;28;20031;-71
2022/05/18 02:57:06;;;;;;;35.83;26.23;;;15.00;99.90;;;;;;5077703;28;20024;-71
2022/05/18 02:59:33;;;;;;;31.42;24.13;;;15.00;99.90;;;;;;5091573;28;20028;-71
2022/05/18 03:01:59;;;;;;;31.83;24.27;;;14.90;99.90;;;;;;5092822;28;20020;-71
2022/05/18 03:04:25;;;;;;;33.85;25.38;;;14.90;99.90;;;;;;5058062;28;20503;-71
2022/05/18 03:06:51;;;;;;;35.08;24.38;;;14.90;99.90;;;;;;5057904;28;20028;-71
2022/05/18 03:09:18;;;;;;;31.80;24.48;;;14.90;99.90;;;;;;5092409;28;20062;-71
2022/05/18 03:11:44;;;;;;;29.30;23.58;;;14.80;99.90;;;;;;5058065;28;20020;-70
2022/05/18 03:14:09;;;;;;;34.17;25.80;;;14.80;99.90;;;;;;5092685;28;20020;-70
2022/05/18 03:16:37;;;;;;;36.53;25.67;;;14.80;99.90;;;;;;5060396;28;20051;-70
2022/05/18 03:19:02;;;;;;;34.95;26.13;;;14.80;99.90;;;;;;5096327;28;20028;-70
2022/05/18 03:24:13;;;;;;;42.15;27.73;;;14.80;99.90;;;;;;5095997;28;20535;-70
2022/05/18 03:26:39;;;;;;;32.15;25.02;;;14.80;99.90;;;;;;5096254;28;20111;-70
2022/05/18 03:29:05;;;;;;;36.58;24.90;;;14.80;99.90;;;;;;5077920;28;20028;-70
2022/05/18 03:31:31;;;;;;;37.85;24.90;;;14.70;99.90;;;;;;5096040;28;20478;-70
2022/05/18 03:33:58;;;;;;;33.10;24.83;;;14.70;99.90;;;;;;5078126;28;20024;-70
2022/05/18 03:36:23;;;;;;;31.77;25.02;;;14.70;99.90;;;;;;5078037;28;20020;-70
2022/05/18 03:38:50;;;;;;;35.42;26.55;;;14.70;99.90;;;;;;5078059;28;20081;-70
2022/05/18 03:41:17;;;;;;;29.73;24.55;;;14.70;99.90;;;;;;5077870;28;20026;-70
2022/05/18 03:43:42;;;;;;;29.08;22.73;;;14.70;99.90;;;;;;5077630;28;20404;-70
2022/05/18 03:46:09;;;;;;;32.80;24.80;;;14.70;99.90;;;;;;5095827;28;20028;-70
2022/05/18 03:48:35;;;;;;;35.55;25.42;;;14.80;99.90;;;;;;5094380;28;20115;-70
2022/05/18 03:51:04;;;;;;;32.20;24.38;;;14.80;99.90;;;;;;5095794;28;20024;-70
2022/05/18 03:53:30;;;;;;;31.30;22.65;;;14.80;99.90;;;;;;5094506;28;20421;-70
2022/05/18 03:55:55;;;;;;;34.40;24.50;;;14.80;99.90;;;;;;5077787;28;20055;-70
2022/05/18 03:58:21;;;;;;;29.52;21.80;;;14.80;99.90;;;;;;5095687;28;20039;-70
2022/05/18 04:00:49;;;;;;;23.52;19.88;;;14.80;99.90;;;;;;5095497;28;20032;-70
2022/05/18 04:03:16;;;;;;;25.42;20.13;;;14.90;99.90;;;;;;5095498;28;20020;-70
2022/05/18 04:05:42;;;;;;;26.63;21.30;;;14.90;99.90;;;;;;5060621;28;20653;-70
2022/05/18 04:08:09;;;;;;;32.53;22.38;;;14.90;99.90;;;;;;5077151;28;20083;-70
2022/05/18 04:10:36;;;;;;;27.58;21.52;;;15.00;99.90;;;;;;5060691;28;20502;-70
2022/05/18 04:13:02;;;;;;;25.83;21.58;;;15.00;99.90;;;;;;5077342;28;20474;-70
2022/05/18 04:15:28;;;;;;;23.05;20.13;;;15.10;99.90;;;;;;5095297;28;20035;-70
2022/05/18 04:17:54;;;;;;;24.33;20.52;;;15.10;99.90;;;;;;5095274;28;20031;-70
2022/05/18 04:20:22;;;;;;;31.38;22.55;;;15.20;99.90;;;;;;5095213;28;20073;-70
2022/05/18 04:22:49;;;;;;;26.15;21.48;;;15.30;99.90;;;;;;5095118;28;20035;-70
2022/05/18 04:25:25;;;;;;;22.30;18.65;;;15.40;99.90;;;;;;5077131;28;20378;-71
2022/05/18 04:27:51;;;;;;;24.02;19.95;;;15.50;99.90;;;;;;5095087;28;20096;-71
2022/05/18 04:30:18;;;;;;;22.15;19.77;;;15.60;99.90;;;;;;5094836;28;20066;-71
2022/05/18 04:32:45;;;;;;;20.50;17.83;;;15.80;99.90;;;;;;5076999;28;20486;-71
2022/05/18 04:35:12;;;;;;;20.83;15.82;;;16.60;99.90;;;;;;5093656;28;20028;-71
2022/05/18 04:37:39;;;;;;;14.40;12.93;;;17.50;99.90;;;;;;5093577;28;20097;-71
2022/05/18 04:40:06;;;;;;;15.52;10.85;;;18.50;99.90;;;;;;5076829;28;20020;-72
2022/05/18 04:42:31;;;;;;;11.73;8.57;;;19.50;99.90;;;;;;5094706;28;20379;-72
2022/05/18 04:44:57;;;;;;;17.15;8.60;;;20.30;99.90;;;;;;5076723;28;20020;-72
2022/05/18 04:47:24;;;;;;;13.48;8.73;;;21.30;99.90;;;;;;5095046;28;20418;-72
2022/05/18 04:49:51;;;;;;;7.65;6.65;;;21.90;99.90;;;;;;5076467;28;20028;-72
2022/05/18 04:52:17;;;;;;;9.98;7.82;;;22.40;99.90;;;;;;5076679;28;20019;-72
2022/05/18 04:54:43;;;;;;;11.00;7.68;;;22.40;99.90;;;;;;5076316;28;20494;-72
2022/05/18 04:57:08;;;;;;;10.75;7.57;;;22.30;99.90;;;;;;5094444;28;20016;-72
2022/05/18 04:59:34;;;;;;;11.63;7.97;;;22.00;99.90;;;;;;5076321;28;20032;-72
2022/05/18 05:02:00;;;;;;;11.80;7.72;;;22.10;99.90;;;;;;5094377;28;20020;-72
2022/05/18 05:04:25;;;;;;;10.30;7.45;;;22.10;99.90;;;;;;5059474;28;20030;-72
2022/05/18 05:06:51;;;;;;;14.68;8.00;;;22.00;99.90;;;;;;5059436;28;20046;-72
2022/05/18 05:09:16;;;;;;;9.88;7.95;;;21.70;99.90;;;;;;5093795;28;20049;-72
2022/05/18 05:11:42;;;;;;;9.18;8.15;;;21.20;99.90;;;;;;5076049;28;20513;-72
2022/05/18 05:14:08;;;;;;;11.98;8.50;;;20.70;99.90;;;;;;5094107;28;20040;-72
2022/05/18 05:16:34;;;;;;;13.23;9.13;;;20.30;99.90;;;;;;5075936;28;20059;-72
2022/05/18 05:19:00;;;;;;;10.70;8.50;;;20.20;99.90;;;;;;5094033;28;20052;-71
2022/05/18 05:21:26;;;;;;;11.77;8.43;;;20.00;99.90;;;;;;5075783;28;20386;-71
2022/05/18 05:23:51;;;;;;;14.57;8.75;;;20.00;99.90;;;;;;5094068;28;20024;-71
2022/05/18 05:26:17;;;;;;;10.90;7.60;;;20.30;99.90;;;;;;5075660;28;20031;-71
2022/05/18 05:28:43;;;;;;;12.80;7.68;;;20.80;99.90;;;;;;5075735;28;20028;-72
2022/05/18 05:31:10;;;;;;;9.80;7.03;;;21.50;99.90;;;;;;5075711;28;20073;-72
2022/05/18 05:33:38;;;;;;;10.75;6.57;;;23.00;99.90;;;;;;5093773;28;20028;-71
2022/05/18 05:36:05;;;;;;;9.40;6.20;;;24.40;99.90;;;;;;5059001;28;20386;-71
2022/05/18 05:38:30;;;;;;;9.07;6.30;;;25.90;99.90;;;;;;5093341;28;20428;-72
2022/05/18 05:40:56;;;;;;;11.85;6.72;;;26.40;99.90;;;;;;5093661;28;20020;-71
2022/05/18 05:43:22;;;;;;;9.70;6.90;;;27.40;99.90;;;;;;5093710;28;20481;-72
2022/05/18 05:45:59;;;;;;;6.05;5.47;;;27.90;99.90;;;;;;5075498;28;20032;-72
2022/05/18 05:48:26;;;;;;;9.02;5.55;;;28.30;99.00;;;;;;5093454;28;20119;-72
2022/05/18 05:50:52;;;;;;;7.47;5.32;;;28.40;98.20;;;;;;5075510;28;20027;-72
2022/05/18 05:53:17;;;;;;;7.55;5.10;;;28.60;96.50;;;;;;5093458;28;20024;-72
2022/05/18 05:55:42;;;;;;;10.50;5.07;;;27.50;97.30;;;;;;5093389;28;20095;-73
2022/05/18 05:58:08;;;;;;;8.88;5.00;;;26.50;99.90;;;;;;5093409;28;20027;-72
2022/05/18 06:00:34;;;;;;;8.85;5.82;;;25.50;99.90;;;;;;5077385;28;20055;-70
2022/05/18 06:02:59;;;;;;;9.68;5.38;;;24.70;99.90;;;;;;5115671;28;20031;-72
2022/05/18 06:05:25;;;;;;;6.43;5.20;;;24.70;99.90;;;;;;5130128;27;20024;-71
2022/05/18 06:07:51;;;;;;;6.15;5.35;;;24.40;99.90;;;;;;5113274;28;20089;-72
2022/05/18 06:10:16;;;;;;;10.70;5.68;;;24.00;99.90;;;;;;5092185;28;20031;-71
2022/05/18 06:12:42;;;;;;;10.57;4.82;;;24.30;99.90;;;;;;5086179;28;20027;-71
2022/05/18 06:15:09;;;;;;;8.27;4.82;;;25.20;99.90;;;;;;5104157;28;20081;-72
2022/05/18 06:17:34;;;;;;;10.60;5.10;;;26.20;99.90;;;;;;5109948;28;20015;-71
2022/05/18 06:20:00;;;;;;;9.30;4.18;;;26.90;99.90;;;;;;5112417;28;20024;-68
2022/05/18 06:22:26;;;;;;;9.30;4.68;;;28.10;99.90;;;;;;5112066;28;20123;-69
2022/05/18 06:24:53;;;;;;;8.10;4.57;;;28.80;97.00;;;;;;5112410;28;20104;-69
2022/05/18 06:27:19;;;;;;;7.53;4.45;;;28.70;97.10;;;;;;5112614;28;20023;-70
2022/05/18 06:29:45;;;;;;;6.93;3.97;;;29.00;94.80;;;;;;5112281;28;20063;-69
2022/05/18 06:32:11;;;;;;;6.85;3.80;;;28.90;95.10;;;;;;5077460;28;20028;-70
2022/05/18 06:34:36;;;;;;;13.10;4.60;;;28.50;95.30;;;;;;5094806;28;20154;-68
2022/05/18 06:37:03;;;;;;;5.63;3.60;;;28.30;95.60;;;;;;5113150;28;20367;-69
2022/05/18 06:39:29;;;;;;;7.85;3.70;;;28.70;95.60;;;;;;5113430;28;20031;-69
2022/05/18 06:41:58;;;;;;;5.55;3.47;;;29.60;93.40;;;;;;5113250;28;20110;-68
2022/05/18 06:44:27;;;;;;;5.75;3.03;;;29.80;91.20;;;;;;5113709;28;20102;-69
2022/05/18 06:46:58;;;;;;;6.20;2.97;;;29.90;88.40;;;;;;5113479;28;20020;-69
2022/05/18 06:49:24;;;;;;;7.65;3.20;;;29.50;88.50;;;;;;5113337;28;20028;-66
2022/05/18 06:51:49;;;;;;;4.60;2.65;;;29.70;86.80;;;;;;5116593;28;20020;-66
2022/05/18 06:54:16;;;;;;;5.00;2.78;;;29.80;88.80;;;;;;5117507;28;20092;-66
2022/05/18 06:56:42;;;;;;;5.20;2.85;;;30.10;84.80;;;;;;5117034;28;20054;-69
2022/05/18 06:59:10;;;;;;;6.05;3.33;;;30.10;85.00;;;;;;5117292;28;20051;-69
2022/05/18 07:01:37;;;;;;;4.07;3.10;;;30.00;82.00;;;;;;5117147;28;20034;-69
2022/05/18 07:04:03;;;;;;;7.88;3.00;;;28.50;86.00;;;;;;5098893;28;20020;-68
2022/05/18 07:06:33;;;;;;;5.32;3.00;;;28.50;87.50;;;;;;5098777;28;20030;-68
2022/05/18 07:08:59;;;;;;;4.28;3.28;;;28.40;86.10;;;;;;5116544;28;20122;-69
2022/05/18 07:11:25;;;;;;;6.97;2.85;;;29.00;86.30;;;;;;5116866;28;20054;-69
2022/05/18 07:13:53;;;;;;;6.47;3.60;;;29.50;83.50;;;;;;5116952;28;20383;-69
2022/05/18 07:16:24;;;;;;;7.82;3.40;;;30.10;79.70;;;;;;5116739;28;20027;-69
2022/05/18 07:18:50;;;;;;;7.55;3.15;;;30.40;78.80;;;;;;5116748;28;20028;-68
2022/05/18 07:21:16;;;;;;;10.20;3.42;;;30.30;80.40;;;;;;5116850;28;20020;-69
2022/05/18 07:23:42;;;;;;;8.27;3.30;;;29.80;79.90;;;;;;5116770;28;20500;-69
2022/05/18 07:26:08;;;;;;;9.00;3.10;;;30.30;80.00;;;;;;5116346;28;20027;-69
2022/05/18 07:28:34;;;;;;;9.05;3.40;;;30.90;80.10;;;;;;5097961;28;20032;-70
2022/05/18 07:30:59;;;;;;;5.30;3.22;;;30.50;75.90;;;;;;5098033;28;20386;-69
2022/05/18 07:33:26;;;;;;;4.05;3.10;;;30.90;75.90;;;;;;5116366;28;20019;-68
2022/05/18 07:35:53;;;;;;;5.13;2.67;;;30.40;77.90;;;;;;5116232;28;20031;-68
2022/05/18 07:38:21;;;;;;;5.75;2.95;;;30.50;78.00;;;;;;5116539;28;20074;-69
2022/05/18 07:40:48;;;;;;;3.42;2.78;;;31.00;76.10;;;;;;5116487;28;20526;-69
2022/05/18 07:43:14;;;;;;;7.45;2.97;;;30.40;78.20;;;;;;5116281;28;20153;-69
2022/05/18 07:45:39;;;;;;;5.20;2.63;;;30.60;77.10;;;;;;5116472;28;20501;-68
2022/05/18 07:48:05;;;;;;;4.97;2.70;;;30.00;77.10;;;;;;5097754;28;20081;-69
2022/05/18 07:50:31;;;;;;;4.18;2.80;;;29.50;76.00;;;;;;5116165;28;20030;-70
2022/05/18 07:52:59;;;;;;;9.13;3.00;;;29.50;77.70;;;;;;5116224;28;20020;-69
2022/05/18 07:55:25;;;;;;;4.82;2.65;;;29.90;75.60;;;;;;5097955;28;20051;-68
2022/05/18 07:57:51;;;;;;;5.35;3.15;;;29.50;74.20;;;;;;5115911;28;20066;-69
2022/05/18 08:00:17;;;;;;;7.68;2.90;;;29.40;76.40;;;;;;5116123;28;20019;-68
2022/05/18 08:02:43;;;;;;;3.88;2.70;;;29.60;76.70;;;;;;5097235;28;20059;-69
2022/05/18 08:05:09;;;;;;;3.88;2.80;;;30.50;72.80;;;;;;5097645;28;20553;-68
2022/05/18 08:07:35;;;;;;;5.70;2.78;;;30.20;73.80;;;;;;5115544;28;20047;-69
2022/05/18 08:15:33;;;;;;;5.88;2.88;;;29.60;76.20;;;;;;5115507;28;20112;-68
2022/05/18 08:17:58;;;;;;;5.18;2.70;;;30.00;73.30;;;;;;5097718;28;20015;-68
2022/05/18 08:20:24;;;;;;;3.60;2.72;;;29.80;73.90;;;;;;5097294;28;20026;-68
2022/05/18 08:22:50;;;;;;;4.40;2.75;;;30.50;71.90;;;;;;5115388;28;20030;-68
2022/05/18 08:25:16;;;;;;;6.30;2.75;;;30.40;71.60;;;;;;5097420;28;20103;-68
2022/05/18 08:27:44;;;;;;;4.57;2.50;;;31.10;69.60;;;;;;5115374;28;20028;-68
2022/05/18 08:30:12;;;;;;;3.50;2.50;;;30.90;69.50;;;;;;5115410;28;20110;-68
2022/05/18 08:32:41;;;;;;;5.50;2.65;;;31.00;68.20;;;;;;5115335;28;20102;-68
2022/05/18 08:35:07;;;;;;;3.28;2.92;;;30.30;71.40;;;;;;5115052;28;20389;-68
2022/05/18 08:37:43;;;;;;;4.43;2.63;;;29.80;71.60;;;;;;5115122;28;20027;-68
2022/05/18 08:40:32;;;;;;;4.45;2.65;;;30.70;73.00;;;;;;5114852;28;20042;-68
2022/05/18 08:43:01;;;;;;;5.80;3.17;;;30.70;68.50;;;;;;5115009;28;20473;-68
2022/05/18 08:45:32;;;;;;;5.07;2.90;;;29.90;71.60;;;;;;5114980;28;20019;-68
2022/05/18 08:48:06;;;;;;;7.53;2.63;;;30.20;71.40;;;;;;5115049;28;20051;-68
2022/05/18 08:50:33;;;;;;;7.57;3.05;;;30.40;71.40;;;;;;5115087;28;20027;-68
2022/05/18 08:53:31;;;;;;;5.70;2.60;;;31.60;66.60;;;;;;5114607;28;20107;-68
2022/05/18 08:56:17;;;;;;;5.13;2.50;;;32.30;65.10;;;;;;5096148;28;20034;-68
2022/05/18 08:58:47;;;;;;;3.40;2.50;;;31.20;66.40;;;;;;5114839;28;20039;-68
2022/05/18 09:01:40;;;;;;;4.03;2.40;;;31.10;66.40;;;;;;5115037;28;20107;-68
2022/05/18 09:04:13;;;;;;;4.32;2.88;;;30.90;67.00;;;;;;5099745;28;20020;-68
2022/05/18 09:06:50;;;;;;;5.72;2.65;;;30.50;68.60;;;;;;5114899;28;20583;-68
2022/05/18 09:12:13;;;;;;;5.03;2.78;;;32.00;64.80;;;;;;5099061;28;20102;-68
2022/05/18 09:14:42;;;;;;;6.22;2.30;;;31.50;64.80;;;;;;5113660;28;20051;-68
2022/05/18 09:17:47;;;;;;;4.72;2.70;;;31.60;65.80;;;;;;5114632;28;20031;-70
2022/05/18 09:20:23;;;;;;;3.53;2.50;;;31.60;67.50;;;;;;5114115;28;20031;-68
2022/05/18 09:23:15;;;;;;;2.65;2.05;;;31.60;67.00;;;;;;5114410;28;20030;-68
2022/05/18 09:26:07;;;;;;;3.80;2.75;;;32.20;62.60;;;;;;5113963;28;20110;-68
2022/05/18 09:29:04;;;;;;;6.90;2.47;;;31.80;63.40;;;;;;5114321;28;20441;-68
2022/05/18 09:31:54;;;;;;;4.47;2.55;;;31.90;65.30;;;;;;5096143;28;20064;-68
2022/05/18 09:34:49;;;;;;;5.25;2.55;;;32.00;63.20;;;;;;5114126;28;20022;-68
2022/05/18 09:37:40;;;;;;;3.10;2.55;;;32.30;62.00;;;;;;5113883;28;20016;-68
2022/05/18 09:40:16;;;;;;;3.78;2.40;;;31.40;64.40;;;;;;5114038;28;20030;-68
2022/05/18 09:42:48;;;;;;;2.60;2.40;;;31.50;62.40;;;;;;5113935;28;20034;-68
2022/05/18 09:45:18;;;;;;;3.33;2.60;;;31.40;64.40;;;;;;5113793;28;20132;-68
2022/05/18 09:47:50;;;;;;;4.30;2.40;;;31.30;63.50;;;;;;5113860;28;20511;-68
2022/05/18 09:50:16;;;;;;;6.10;2.60;;;31.70;61.60;;;;;;5113785;28;20390;-68
2022/05/18 09:52:44;;;;;;;5.88;2.60;;;31.50;62.50;;;;;;5095951;28;20019;-68
2022/05/18 09:55:14;;;;;;;2.47;2.22;;;31.00;63.10;;;;;;5113802;28;20016;-68
2022/05/18 09:58:03;;;;;;;5.65;2.63;;;31.20;62.50;;;;;;5113835;28;20026;-68
2022/05/18 10:00:32;;;;;;;5.38;2.65;;;31.30;62.00;;;;;;5113838;28;20019;-68
2022/05/18 10:08:57;;;;;;;4.30;2.53;;;31.20;64.90;;;;;;5101299;28;20115;-68
2022/05/18 10:11:29;;;;;;;3.00;2.50;;;31.30;59.90;;;;;;5113234;28;20012;-67
2022/05/18 10:14:10;;;;;;;5.68;2.85;;;31.60;60.30;;;;;;5113550;28;20078;-67
2022/05/18 10:16:48;;;;;;;5.68;2.67;;;31.30;61.20;;;;;;5113790;28;20019;-68
2022/05/18 10:19:24;;;;;;;6.20;2.92;;;31.70;61.70;;;;;;5113405;28;20110;-68
2022/05/18 10:21:58;;;;;;;5.32;2.30;;;32.30;61.90;;;;;;5113378;28;20031;-68
2022/05/18 10:24:30;;;;;;;4.10;2.40;;;33.00;59.30;;;;;;5114373;28;20112;-69
2022/05/18 10:30:16;;;;;;;4.22;2.70;;;32.70;58.50;;;;;;5110957;27;20178;-68
2022/05/18 10:33:03;;;;;;;4.15;2.60;;;31.90;59.70;;;;;;5110911;28;20024;-68
2022/05/18 10:35:50;;;;;;;4.97;2.80;;;31.40;60.90;;;;;;5110919;28;20031;-69
2022/05/18 10:38:34;;;;;;;7.32;2.53;;;31.10;60.70;;;;;;5110827;28;20020;-68
2022/05/18 10:43:44;;;;;;;4.32;2.50;;;31.90;58.60;;;;;;5070625;28;20847;-68
2022/05/18 10:46:19;;;;;;;4.55;2.97;;;31.30;59.30;;;;;;5070366;28;20044;-68
2022/05/18 10:48:55;;;;;;;4.38;2.53;;;31.30;60.60;;;;;;5070228;28;20021;-68
2022/05/18 10:51:43;;;;;;;3.13;2.67;;;31.00;59.60;;;;;;5070599;28;20052;-68
2022/05/18 10:54:16;;;;;;;5.35;2.75;;;30.70;60.60;;;;;;5070478;28;20021;-68
2022/05/18 10:56:44;;;;;;;5.78;3.00;;;30.70;62.10;;;;;;5070247;28;20398;-66
2022/05/18 10:59:36;;;;;;;6.47;2.83;;;30.80;64.80;;;;;;5070414;28;20031;-68
2022/05/18 11:07:55;;;;;;;6.20;2.88;;;30.60;63.40;;;;;;5110860;27;20417;-68
2022/05/18 11:10:24;;;;;;;3.92;2.60;;;31.00;61.60;;;;;;5111113;28;20023;-66
2022/05/18 11:13:00;;;;;;;4.93;2.75;;;31.30;60.70;;;;;;5110797;28;20103;-68
2022/05/18 11:15:41;;;;;;;4.00;2.50;;;30.60;60.90;;;;;;5110702;28;20020;-68
2022/05/18 11:18:37;;;;;;;6.07;3.05;;;30.50;63.90;;;;;;5109487;28;20462;-68
2022/05/18 11:21:27;;;;;;;6.90;3.15;;;30.10;62.30;;;;;;5103108;28;20495;-69
2022/05/18 11:24:14;;;;;;;5.82;2.92;;;30.10;63.40;;;;;;5090280;28;20460;-68
2022/05/18 11:27:19;;;;;;;8.10;2.90;;;30.30;62.80;;;;;;5090342;28;20025;-68
2022/05/18 11:30:07;;;;;;;4.68;2.67;;;30.80;65.40;;;;;;5089857;28;20029;-69
2022/05/18 11:32:50;;;;;;;6.55;2.60;;;31.10;60.90;;;;;;5090099;28;20090;-69
2022/05/18 11:35:56;;;;;;;5.85;2.45;;;30.80;62.20;;;;;;5090028;28;20025;-68
2022/05/18 11:38:49;;;;;;;5.18;2.63;;;30.60;59.80;;;;;;5092341;28;20028;-68
2022/05/18 11:41:34;;;;;;;5.55;2.40;;;30.50;58.90;;;;;;5095505;28;20504;-68
2022/05/18 11:47:01;;;;;;;6.10;2.55;;;30.40;58.10;;;;;;5105867;27;20710;-69
2022/05/18 11:49:40;;;;;;;4.65;2.70;;;30.90;61.00;;;;;;5087158;28;20437;-68
2022/05/18 11:52:32;;;;;;;4.57;2.92;;;30.40;61.90;;;;;;5083567;28;20029;-67
2022/05/18 11:55:17;;;;;;;5.78;2.88;;;30.70;61.20;;;;;;5090398;28;20060;-69
2022/05/18 11:57:58;;;;;;;3.80;2.60;;;30.80;58.00;;;;;;5089295;28;20028;-67
2022/05/18 12:03:50;;;;;;;2.60;2.15;;;30.70;56.90;;;;;;5090434;28;20023;-68
2022/05/18 12:06:38;;;;;;;2.65;2.22;;;30.70;58.40;;;;;;5087820;28;20027;-68
2022/05/18 12:09:43;;;;;;;6.57;3.60;;;30.50;59.10;;;;;;5083894;28;20077;-67
2022/05/18 12:12:40;;;;;;;7.10;2.85;;;29.90;58.70;;;;;;5068208;28;20017;-68
2022/05/18 12:15:31;;;;;;;5.00;2.75;;;29.40;59.50;;;;;;5069754;28;20483;-67
2022/05/18 12:18:03;;;;;;;4.45;2.45;;;29.80;62.30;;;;;;5079215;28;20482;-67
2022/05/18 12:20:39;;;;;;;4.45;2.60;;;30.40;61.20;;;;;;5089146;28;20479;-68
2022/05/18 12:23:09;;;;;;;4.25;2.60;;;30.90;59.50;;;;;;5089596;28;20074;-68
2022/05/18 12:25:35;;;;;;;4.10;2.60;;;31.30;59.30;;;;;;5087968;28;20111;-68
2022/05/18 12:28:03;;;;;;;4.47;2.38;;;30.60;58.10;;;;;;5089680;28;20074;-67
2022/05/18 12:30:33;;;;;;;4.28;2.78;;;30.70;59.80;;;;;;5089686;28;20521;-68
2022/05/18 12:32:59;;;;;;;4.32;2.38;;;30.60;57.90;;;;;;5089711;28;20016;-67
2022/05/18 12:35:33;;;;;;;9.30;2.40;;;30.10;58.80;;;;;;5089759;28;20532;-67
2022/05/18 12:38:05;;;;;;;4.45;2.60;;;30.60;60.50;;;;;;5088675;28;20106;-68
2022/05/18 12:40:44;;;;;;;5.30;2.63;;;30.90;59.90;;;;;;5088471;28;20028;-68
2022/05/18 12:43:24;;;;;;;8.23;2.97;;;30.60;57.70;;;;;;5089528;28;20116;-68
2022/05/18 12:45:57;;;;;;;4.43;2.50;;;30.40;58.60;;;;;;5088917;28;20068;-68
2022/05/18 12:51:44;;;;;;;5.53;2.95;;;30.40;58.70;;;;;;5105156;27;20052;-68
2022/05/18 12:57:08;;;;;;;5.97;2.47;;;30.40;58.10;;;;;;5103106;27;20533;-68
2022/05/18 12:59:56;;;;;;;4.63;2.45;;;30.80;58.80;;;;;;5089241;28;20032;-68
2022/05/18 13:02:42;;;;;;;3.65;2.70;;;30.70;58.30;;;;;;5090172;28;20024;-68
2022/05/18 13:05:31;;;;;;;5.85;2.20;;;30.80;60.40;;;;;;5097757;28;20074;-68
2022/05/18 13:08:21;;;;;;;4.13;2.25;;;30.70;57.20;;;;;;5100936;28;20090;-68
2022/05/18 13:11:11;;;;;;;3.55;2.70;;;30.50;58.20;;;;;;5110295;28;20031;-68
2022/05/18 13:14:06;;;;;;;2.80;2.30;;;30.40;57.60;;;;;;5110244;28;20151;-69
2022/05/18 13:16:43;;;;;;;2.60;2.40;;;30.50;57.00;;;;;;5097504;28;20028;-70
2022/05/18 13:21:59;;;;;;;11.05;2.60;;;30.40;57.50;;;;;;5148566;27;20417;-68
2022/05/18 13:24:34;;;;;;;6.38;2.85;;;30.80;59.00;;;;;;5111435;28;20116;-69
2022/05/18 13:27:19;;;;;;;3.40;2.60;;;30.80;57.10;;;;;;5133705;27;20020;-68
2022/05/18 13:29:47;;;;;;;4.97;2.65;;;31.10;57.40;;;;;;5151215;27;20369;-69
2022/05/18 13:32:16;;;;;;;3.55;2.53;;;31.10;57.40;;;;;;5141739;27;20023;-68
2022/05/18 13:34:48;;;;;;;3.65;2.22;;;30.90;57.70;;;;;;5131200;27;20019;-68
2022/05/18 13:37:14;;;;;;;4.75;2.47;;;30.90;57.50;;;;;;5131183;27;20073;-68
2022/05/18 13:39:45;;;;;;;4.53;2.60;;;30.80;57.10;;;;;;5131135;28;20063;-68
2022/05/18 13:42:21;;;;;;;6.90;2.70;;;30.40;56.80;;;;;;5131340;27;20021;-68
2022/05/18 13:44:52;;;;;;;4.15;2.40;;;30.20;58.00;;;;;;5131174;27;20015;-70